createdAt,value
2023-05-20T00:01:39.773Z,1.95
2023-05-20T00:04:06.542Z,2.00
2023-05-20T00:06:33.838Z,2.50
2023-05-20T00:09:00.524Z,2.00
2023-05-20T00:11:27.077Z,2.17
2023-05-20T00:13:53.805Z,2.08
2023-05-20T00:16:20.439Z,2.17
2023-05-20T00:18:47.184Z,2.42
2023-05-20T00:21:13.704Z,2.15
2023-05-20T00:23:40.593Z,2.13
2023-05-20T00:26:07.253Z,2.15
2023-05-20T00:28:33.762Z,3.10
2023-05-20T00:31:00.221Z,2.17
2023-05-20T00:33:26.758Z,2.40
2023-05-20T00:35:53.249Z,2.60
2023-05-20T00:38:19.737Z,2.10
2023-05-20T00:40:46.378Z,2.03
2023-05-20T00:43:12.980Z,2.17
2023-05-20T00:45:39.589Z,1.88
2023-05-20T00:48:06.802Z,2.03
2023-05-20T00:50:33.939Z,2.10
2023-05-20T00:53:00.870Z,2.47
2023-05-20T00:55:27.580Z,1.90
2023-05-20T00:57:54.531Z,2.40
2023-05-20T01:00:21.231Z,2.25
2023-05-20T01:02:49.316Z,1.95
2023-05-20T01:05:16.260Z,2.53
2023-05-20T01:07:43.231Z,1.65
2023-05-20T01:10:10.706Z,1.90
2023-05-20T01:12:41.383Z,2.15
2023-05-20T01:15:10.640Z,2.03
2023-05-20T01:18:01.707Z,2.22
2023-05-20T01:20:51.029Z,2.13
2023-05-20T01:23:42.192Z,1.85
2023-05-20T01:26:28.710Z,2.28
2023-05-20T01:29:18.718Z,2.28
2023-05-20T01:32:22.311Z,2.28
2023-05-20T01:34:50.602Z,2.30
2023-05-20T01:37:18.517Z,2.30
2023-05-20T01:39:46.715Z,2.78
2023-05-20T01:42:15.518Z,2.45
2023-05-20T01:44:42.277Z,2.85
2023-05-20T01:47:09.388Z,2.40
2023-05-20T01:49:36.028Z,2.30
2023-05-20T01:52:02.548Z,2.63
2023-05-20T01:54:29.592Z,2.28
2023-05-20T01:56:56.272Z,2.30
2023-05-20T01:59:23.082Z,2.20
2023-05-20T02:01:51.033Z,2.25
2023-05-20T02:04:19.327Z,2.38
2023-05-20T02:06:46.077Z,2.40
2023-05-20T02:09:12.982Z,2.38
2023-05-20T02:11:39.771Z,2.35
2023-05-20T02:14:06.506Z,2.58
2023-05-20T02:16:33.189Z,2.85
2023-05-20T02:18:59.827Z,2.35
2023-05-20T02:21:26.754Z,1.95
2023-05-20T02:23:53.792Z,2.40
2023-05-20T02:26:20.689Z,2.90
2023-05-20T02:28:50.815Z,2.40
2023-05-20T02:31:18.094Z,2.17
2023-05-20T02:33:45.238Z,2.50
2023-05-20T02:36:12.464Z,3.03
2023-05-20T02:38:39.188Z,2.90
2023-05-20T02:41:05.892Z,2.47
2023-05-20T02:43:33.355Z,2.58
2023-05-20T02:46:01.148Z,2.88
2023-05-20T02:48:27.747Z,2.92
2023-05-20T02:50:54.413Z,2.88
2023-05-20T02:53:21.155Z,2.78
2023-05-20T02:55:48.583Z,2.55
2023-05-20T02:58:15.350Z,2.63
2023-05-20T03:00:41.802Z,2.88
2023-05-20T03:03:10.163Z,2.97
2023-05-20T03:05:38.030Z,2.35
2023-05-20T03:08:09.564Z,3.13
2023-05-20T03:10:39.892Z,2.80
2023-05-20T03:13:09.321Z,2.63
2023-05-20T03:15:38.455Z,2.58
2023-05-20T03:18:07.280Z,2.72
2023-05-20T03:20:36.774Z,2.50
2023-05-20T03:23:04.561Z,3.00
2023-05-20T03:25:31.500Z,2.38
2023-05-20T03:27:59.674Z,2.85
2023-05-20T03:30:29.346Z,3.08
2023-05-20T03:35:26.689Z,2.13
2023-05-20T03:37:54.467Z,2.45
2023-05-20T03:40:23.554Z,2.38
2023-05-20T03:42:52.208Z,2.80
2023-05-20T03:45:20.631Z,2.95
2023-05-20T03:48:03.826Z,2.90
2023-05-20T03:50:32.929Z,2.77
2023-05-20T03:53:00.600Z,2.70
2023-05-20T03:55:28.799Z,2.90
2023-05-20T03:57:55.578Z,2.50
2023-05-20T04:00:22.925Z,2.90
2023-05-20T04:02:49.523Z,2.72
2023-05-20T04:05:18.505Z,2.70
2023-05-20T04:07:46.278Z,2.75
2023-05-20T04:10:13.495Z,3.30
2023-05-20T04:12:40.030Z,2.67
2023-05-20T04:15:07.546Z,2.83
2023-05-20T04:17:43.673Z,2.88
2023-05-20T04:20:11.274Z,3.08
2023-05-20T04:22:39.612Z,2.95
2023-05-20T04:25:07.676Z,2.72
2023-05-20T04:27:34.262Z,3.00
2023-05-20T04:30:02.259Z,3.70
2023-05-20T04:32:34.501Z,2.80
2023-05-20T04:35:02.266Z,2.78
2023-05-20T04:37:32.114Z,3.30
2023-05-20T04:39:58.656Z,2.78
2023-05-20T04:42:25.859Z,2.80
2023-05-20T04:44:52.771Z,2.97
2023-05-20T04:47:20.559Z,2.75
2023-05-20T04:49:47.124Z,3.25
2023-05-20T04:52:13.697Z,2.85
2023-05-20T04:54:40.355Z,3.50
2023-05-20T04:57:07.206Z,3.30
2023-05-20T04:59:34.124Z,2.85
2023-05-20T05:02:00.852Z,2.95
2023-05-20T05:04:27.508Z,3.33
2023-05-20T05:06:54.248Z,2.95
2023-05-20T05:09:21.105Z,3.20
2023-05-20T05:11:47.651Z,3.03
2023-05-20T05:14:14.298Z,2.83
2023-05-20T05:16:40.879Z,3.10
2023-05-20T05:19:09.271Z,3.30
2023-05-20T05:21:38.341Z,3.25
2023-05-20T05:24:05.306Z,3.70
2023-05-20T05:26:31.799Z,3.60
2023-05-20T05:28:58.263Z,3.65
2023-05-20T05:31:24.939Z,4.05
2023-05-20T05:33:51.464Z,3.78
2023-05-20T05:36:18.230Z,3.47
2023-05-20T05:38:45.048Z,3.45
2023-05-20T05:41:11.901Z,3.40
2023-05-20T05:43:38.676Z,3.38
2023-05-20T05:46:06.843Z,3.83
2023-05-20T05:48:33.491Z,3.67
2023-05-20T05:51:00.388Z,3.40
2023-05-20T05:53:27.456Z,3.55
2023-05-20T05:55:54.012Z,3.30
2023-05-20T05:58:20.959Z,3.60
2023-05-20T06:00:47.545Z,3.35
2023-05-20T06:03:14.138Z,3.10
2023-05-20T06:05:40.995Z,3.60
2023-05-20T06:08:07.556Z,3.58
2023-05-20T06:10:36.007Z,3.40
2023-05-20T06:13:02.518Z,4.25
2023-05-20T06:15:29.205Z,3.60
2023-05-20T06:17:56.437Z,3.95
2023-05-20T06:20:23.242Z,3.65
2023-05-20T06:22:50.099Z,3.65
2023-05-20T06:25:16.893Z,3.97
2023-05-20T06:27:44.356Z,4.13
2023-05-20T06:30:13.566Z,4.13
2023-05-20T06:32:40.668Z,3.38
2023-05-20T06:35:08.317Z,3.85
2023-05-20T06:37:35.211Z,3.53
2023-05-20T06:40:01.894Z,3.88
2023-05-20T06:42:28.662Z,3.88
2023-05-20T06:45:03.525Z,4.05
2023-05-20T06:47:41.267Z,3.80
2023-05-20T06:50:09.394Z,3.47
2023-05-20T06:52:36.000Z,3.22
2023-05-20T06:55:04.038Z,3.70
2023-05-20T06:57:30.562Z,3.60
2023-05-20T06:59:57.071Z,3.40
2023-05-20T07:02:23.618Z,4.30
2023-05-20T07:04:50.141Z,3.38
2023-05-20T07:07:17.460Z,3.85
2023-05-20T07:09:45.406Z,3.50
2023-05-20T07:12:12.141Z,4.07
2023-05-20T07:14:38.642Z,4.28
2023-05-20T07:17:05.865Z,3.30
2023-05-20T07:19:33.796Z,4.15
2023-05-20T07:22:00.644Z,3.20
2023-05-20T07:24:50.440Z,3.95
2023-05-20T07:27:16.930Z,3.35
2023-05-20T07:29:43.543Z,3.75
2023-05-20T07:32:11.655Z,3.78
2023-05-20T07:34:38.816Z,3.15
2023-05-20T07:37:06.084Z,3.80
2023-05-20T07:39:32.585Z,3.85
2023-05-20T07:41:59.117Z,3.42
2023-05-20T07:44:26.614Z,3.95
2023-05-20T07:46:53.733Z,4.35
2023-05-20T07:49:20.443Z,3.72
2023-05-20T07:51:47.599Z,3.40
2023-05-20T07:54:16.165Z,3.08
2023-05-20T07:59:12.266Z,3.88
2023-05-20T08:01:44.861Z,3.53
2023-05-20T08:04:14.078Z,3.25
2023-05-20T08:06:41.243Z,3.72
2023-05-20T08:09:11.757Z,3.90
2023-05-20T08:11:41.934Z,4.00
2023-05-20T08:14:08.511Z,3.60
2023-05-20T08:16:39.808Z,3.97
2023-05-20T08:19:06.497Z,4.03
2023-05-20T08:21:33.321Z,4.05
2023-05-20T08:23:59.969Z,4.10
2023-05-20T08:26:27.595Z,3.92
2023-05-20T08:28:54.901Z,3.95
2023-05-20T08:31:22.678Z,3.78
2023-05-20T08:33:50.237Z,3.88
2023-05-20T08:36:19.299Z,3.50
2023-05-20T08:38:46.066Z,3.80
2023-05-20T08:41:12.621Z,3.67
2023-05-20T08:43:42.480Z,3.63
2023-05-20T08:46:09.915Z,3.65
2023-05-20T08:48:37.150Z,4.25
2023-05-20T08:51:04.607Z,3.97
2023-05-20T08:53:31.376Z,3.83
2023-05-20T08:56:03.014Z,3.40
2023-05-20T08:58:30.660Z,2.97
2023-05-20T09:00:58.990Z,3.45
2023-05-20T09:03:25.896Z,3.28
2023-05-20T09:06:07.738Z,3.88
2023-05-20T09:08:34.856Z,3.80
2023-05-20T09:11:01.465Z,3.33
2023-05-20T09:13:30.854Z,3.45
2023-05-20T09:15:59.232Z,3.80
2023-05-20T09:18:26.671Z,3.95
2023-05-20T09:20:53.240Z,4.03
2023-05-20T09:23:23.228Z,3.75
2023-05-20T09:25:51.898Z,4.35
2023-05-20T09:28:24.995Z,5.57
2023-05-20T09:30:51.908Z,3.78
2023-05-20T09:33:18.410Z,3.25
2023-05-20T09:35:44.967Z,3.40
2023-05-20T09:38:12.307Z,3.10
2023-05-20T09:40:40.269Z,3.67
2023-05-20T09:43:07.903Z,4.18
2023-05-20T09:45:35.214Z,3.60
2023-05-20T09:48:02.864Z,3.65
2023-05-20T09:50:31.591Z,3.55
2023-05-20T09:53:02.506Z,3.33
2023-05-20T09:55:30.709Z,3.50
2023-05-20T09:58:01.926Z,3.70
2023-05-20T10:00:28.749Z,3.67
2023-05-20T10:02:55.700Z,3.85
2023-05-20T10:06:09.831Z,3.58
2023-05-20T10:09:09.013Z,3.80
2023-05-20T10:11:44.937Z,3.58
2023-05-20T10:14:36.282Z,3.45
2023-05-20T10:17:15.063Z,3.90
2023-05-20T10:19:41.817Z,3.67
2023-05-20T10:22:10.491Z,3.40
2023-05-20T10:24:42.861Z,4.13
2023-05-20T10:27:15.512Z,3.10
2023-05-20T10:29:43.780Z,3.35
2023-05-20T10:32:10.585Z,3.58
2023-05-20T10:34:48.909Z,3.90
2023-05-20T10:37:27.480Z,3.67
2023-05-20T10:40:05.920Z,3.83
2023-05-20T10:42:32.849Z,4.40
2023-05-20T10:44:59.553Z,3.75
2023-05-20T10:47:26.655Z,3.80
2023-05-20T10:49:53.423Z,3.45
2023-05-20T10:52:20.713Z,3.25
2023-05-20T10:54:55.492Z,3.40
2023-05-20T10:57:22.539Z,3.58
2023-05-20T10:59:50.194Z,3.58
2023-05-20T11:02:17.687Z,4.13
2023-05-20T11:04:44.878Z,3.75
2023-05-20T11:07:11.671Z,3.95
2023-05-20T11:09:38.632Z,3.95
2023-05-20T11:12:06.241Z,3.88
2023-05-20T11:14:32.769Z,3.80
2023-05-20T11:17:00.523Z,3.28
2023-05-20T11:19:27.632Z,3.75
2023-05-20T11:21:54.502Z,3.08
2023-05-20T11:24:27.016Z,3.58
2023-05-20T11:26:54.777Z,3.42
2023-05-20T11:29:22.396Z,4.13
2023-05-20T11:31:51.300Z,3.90
2023-05-20T11:34:24.796Z,4.07
2023-05-20T11:36:59.238Z,3.67
2023-05-20T11:39:29.571Z,4.03
2023-05-20T11:41:57.163Z,4.10
2023-05-20T11:44:24.679Z,3.58
2023-05-20T11:46:51.326Z,3.67
2023-05-20T11:49:17.881Z,3.20
2023-05-20T11:51:44.947Z,3.75
2023-05-20T11:54:12.076Z,3.85
2023-05-20T11:56:41.564Z,3.53
2023-05-20T11:59:10.281Z,4.20
2023-05-20T12:01:40.681Z,4.00
2023-05-20T12:04:08.498Z,4.30
2023-05-20T12:06:37.079Z,4.78
2023-05-20T12:09:06.875Z,3.83
2023-05-20T12:11:35.508Z,3.80
2023-05-20T12:14:05.632Z,3.35
2023-05-20T12:19:00.458Z,4.13
2023-05-20T12:21:28.845Z,3.97
2023-05-20T12:23:58.438Z,4.60
2023-05-20T12:26:26.962Z,3.53
2023-05-20T12:28:54.565Z,12.45
2023-05-20T12:31:21.283Z,4.68
2023-05-20T12:33:47.793Z,4.28
2023-05-20T12:36:14.873Z,4.10
2023-05-20T12:38:41.801Z,4.60
2023-05-20T12:41:08.507Z,5.00
2023-05-20T12:43:37.076Z,4.22
2023-05-20T12:46:04.270Z,4.65
2023-05-20T12:48:30.786Z,4.22
2023-05-20T12:50:57.385Z,4.40
2023-05-20T12:53:23.902Z,4.13
2023-05-20T12:55:50.691Z,4.60
2023-05-20T12:58:17.232Z,3.80
2023-05-20T13:00:44.198Z,4.20
2023-05-20T13:03:11.149Z,3.55
2023-05-20T13:05:38.135Z,4.15
2023-05-20T13:08:04.970Z,4.35
2023-05-20T13:10:33.476Z,4.60
2023-05-20T13:13:00.152Z,4.03
2023-05-20T13:15:26.687Z,4.05
2023-05-20T13:17:54.379Z,4.40
2023-05-20T13:20:21.425Z,3.42
2023-05-20T13:22:50.202Z,3.92
2023-05-20T13:25:17.014Z,3.45
2023-05-20T13:27:43.805Z,4.05
2023-05-20T13:30:10.697Z,3.42
2023-05-20T13:32:37.393Z,4.10
2023-05-20T13:35:04.211Z,3.97
2023-05-20T13:37:30.878Z,3.83
2023-05-20T13:40:00.324Z,3.40
2023-05-20T13:42:26.757Z,3.88
2023-05-20T13:44:53.420Z,3.75
2023-05-20T13:47:19.873Z,3.47
2023-05-20T13:49:46.395Z,4.28
2023-05-20T13:52:13.043Z,3.97
2023-05-20T13:54:39.962Z,4.15
2023-05-20T13:57:08.035Z,4.20
2023-05-20T13:59:35.161Z,4.38
2023-05-20T14:02:02.408Z,3.95
2023-05-20T14:04:31.208Z,3.75
2023-05-20T14:06:59.142Z,3.85
2023-05-20T14:09:25.710Z,3.83
2023-05-20T14:11:52.199Z,3.90
2023-05-20T14:14:18.756Z,3.55
2023-05-20T14:16:45.222Z,4.10
2023-05-20T14:19:11.720Z,4.00
2023-05-20T14:21:38.302Z,3.75
2023-05-20T14:24:05.152Z,3.45
2023-05-20T14:26:33.169Z,3.67
2023-05-20T14:29:00.158Z,4.00
2023-05-20T14:31:27.127Z,3.70
2023-05-20T14:33:53.652Z,3.70
2023-05-20T14:36:20.306Z,3.95
2023-05-20T14:38:48.846Z,3.95
2023-05-20T14:41:16.032Z,4.15
2023-05-20T14:43:42.526Z,3.72
2023-05-20T14:46:09.100Z,3.92
2023-05-20T14:48:35.743Z,3.67
2023-05-20T14:51:02.309Z,3.15
2023-05-20T14:53:28.884Z,3.70
2023-05-20T14:55:55.569Z,4.15
2023-05-20T14:58:22.079Z,3.72
2023-05-20T15:00:48.722Z,3.67
2023-05-20T15:03:15.639Z,3.95
2023-05-20T15:05:42.642Z,4.45
2023-05-20T15:08:09.385Z,4.60
2023-05-20T15:10:36.539Z,4.15
2023-05-20T15:13:03.210Z,4.68
2023-05-20T15:15:29.766Z,4.53
2023-05-20T15:17:56.696Z,4.78
2023-05-20T15:20:23.297Z,4.57
2023-05-20T15:22:49.912Z,4.28
2023-05-20T15:25:16.841Z,5.10
2023-05-20T15:27:43.489Z,4.53
2023-05-20T15:30:10.554Z,4.22
2023-05-20T15:32:37.484Z,4.72
2023-05-20T15:35:04.463Z,4.30
2023-05-20T15:37:31.098Z,4.65
2023-05-20T15:39:57.592Z,3.97
2023-05-20T15:42:24.948Z,5.30
2023-05-20T15:44:51.587Z,4.60
2023-05-20T15:47:18.216Z,4.35
2023-05-20T15:49:44.742Z,4.75
2023-05-20T15:52:11.358Z,5.40
2023-05-20T15:54:37.871Z,5.10
2023-05-20T15:57:04.996Z,5.00
2023-05-20T15:59:31.688Z,5.80
2023-05-20T16:01:58.858Z,5.03
2023-05-20T16:04:25.792Z,5.03
2023-05-20T16:06:52.567Z,4.40
2023-05-20T16:09:19.157Z,5.15
2023-05-20T16:11:46.320Z,5.15
2023-05-20T16:14:13.005Z,5.28
2023-05-20T16:16:39.999Z,5.63
2023-05-20T16:19:06.650Z,5.20
2023-05-20T16:21:33.341Z,5.35
2023-05-20T16:23:59.806Z,5.32
2023-05-20T16:26:26.572Z,5.93
2023-05-20T16:28:53.043Z,5.30
2023-05-20T16:31:19.713Z,5.00
2023-05-20T16:33:46.209Z,5.40
2023-05-20T16:36:12.735Z,5.32
2023-05-20T16:38:39.443Z,5.38
2023-05-20T16:41:06.154Z,5.20
2023-05-20T16:43:32.676Z,5.32
2023-05-20T16:45:59.320Z,4.70
2023-05-20T16:48:26.795Z,5.70
2023-05-20T16:50:53.425Z,5.22
2023-05-20T16:53:19.937Z,5.75
2023-05-20T16:55:47.177Z,5.50
2023-05-20T16:58:13.766Z,5.80
2023-05-20T17:00:41.021Z,5.88
2023-05-20T17:03:07.769Z,6.18
2023-05-20T17:05:34.347Z,7.03
2023-05-20T17:08:01.396Z,5.50
2023-05-20T17:10:28.764Z,6.53
2023-05-20T17:12:55.453Z,6.30
2023-05-20T17:15:23.631Z,6.00
2023-05-20T17:17:51.186Z,5.88
2023-05-20T17:20:17.946Z,6.72
2023-05-20T17:22:44.544Z,6.38
2023-05-20T17:25:11.328Z,6.30
2023-05-20T17:27:37.848Z,6.10
2023-05-20T17:30:05.104Z,6.13
2023-05-20T17:32:31.608Z,6.45
2023-05-20T17:34:58.332Z,6.35
2023-05-20T17:37:24.789Z,6.22
2023-05-20T17:39:51.552Z,6.60
2023-05-20T17:42:18.063Z,6.78
2023-05-20T17:44:44.709Z,6.55
2023-05-20T17:47:11.347Z,7.18
2023-05-20T17:49:38.040Z,6.63
2023-05-20T17:52:05.074Z,6.35
2023-05-20T17:54:31.615Z,6.65
2023-05-20T17:56:58.477Z,6.80
2023-05-20T17:59:25.027Z,7.03
2023-05-20T18:01:52.781Z,6.70
2023-05-20T18:04:21.173Z,7.20
2023-05-20T18:06:48.050Z,7.25
2023-05-20T18:09:14.537Z,7.60
2023-05-20T18:11:41.342Z,8.02
2023-05-20T18:14:07.822Z,7.10
2023-05-20T18:16:34.921Z,8.07
2023-05-20T18:19:02.866Z,7.30
2023-05-20T18:21:29.770Z,7.38
2023-05-20T18:23:56.455Z,7.78
2023-05-20T18:26:23.028Z,7.93
2023-05-20T18:28:50.208Z,7.90
2023-05-20T18:31:16.952Z,7.45
2023-05-20T18:33:43.604Z,7.32
2023-05-20T18:36:10.681Z,7.00
2023-05-20T18:38:39.139Z,8.38
2023-05-20T18:41:08.076Z,7.47
2023-05-20T18:43:34.568Z,7.82
2023-05-20T18:46:01.414Z,7.68
2023-05-20T18:48:28.042Z,7.82
2023-05-20T18:50:55.760Z,7.45
2023-05-20T18:53:22.647Z,7.63
2023-05-20T18:55:49.527Z,8.07
2023-05-20T18:58:16.210Z,8.00
2023-05-20T19:00:42.687Z,8.38
2023-05-20T19:03:09.405Z,8.07
2023-05-20T19:05:36.288Z,8.50
2023-05-20T19:08:05.490Z,9.13
2023-05-20T19:10:32.701Z,9.20
2023-05-20T19:12:59.614Z,8.75
2023-05-20T19:15:26.230Z,9.73
2023-05-20T19:17:53.088Z,9.85
2023-05-20T19:20:19.877Z,9.48
2023-05-20T19:22:46.579Z,10.02
2023-05-20T19:25:13.107Z,10.00
2023-05-20T19:27:39.809Z,9.70
2023-05-20T19:30:09.121Z,10.60
2023-05-20T19:32:37.502Z,10.18
2023-05-20T19:35:05.936Z,9.52
2023-05-20T19:37:32.666Z,9.77
2023-05-20T19:39:59.223Z,10.10
2023-05-20T19:42:25.783Z,10.43
2023-05-20T19:44:53.722Z,10.57
2023-05-20T19:47:20.806Z,10.88
2023-05-20T19:49:47.473Z,10.77
2023-05-20T19:52:13.916Z,10.68
2023-05-20T19:54:42.763Z,10.25
2023-05-20T19:57:10.112Z,11.52
2023-05-20T19:59:38.169Z,12.55
2023-05-20T20:02:06.226Z,11.85
2023-05-20T20:04:32.934Z,10.85
2023-05-20T20:07:00.105Z,11.20
2023-05-20T20:09:27.793Z,12.13
2023-05-20T20:11:54.604Z,12.90
2023-05-20T20:14:21.635Z,13.80
2023-05-20T20:16:49.368Z,12.05
2023-05-20T20:19:23.029Z,12.13
2023-05-20T20:21:52.992Z,12.95
2023-05-20T20:24:20.009Z,12.88
2023-05-20T20:26:47.407Z,13.13
2023-05-20T20:29:15.014Z,15.00
2023-05-20T20:31:41.653Z,13.75
2023-05-20T20:34:08.607Z,14.55
2023-05-20T20:36:35.168Z,13.43
2023-05-20T20:39:05.177Z,14.98
2023-05-20T20:41:33.013Z,15.45
2023-05-20T20:44:03.461Z,14.63
2023-05-20T20:46:30.076Z,13.65
2023-05-20T20:48:56.840Z,13.40
2023-05-20T20:51:23.297Z,14.75
2023-05-20T20:53:52.107Z,14.40
2023-05-20T20:56:18.741Z,14.48
2023-05-20T20:58:46.233Z,15.30
2023-05-20T21:01:17.196Z,14.20
2023-05-20T21:03:44.443Z,14.82
2023-05-20T21:06:13.036Z,14.68
2023-05-20T21:08:39.883Z,15.32
2023-05-20T21:11:06.439Z,14.43
2023-05-20T21:13:33.170Z,13.88
2023-05-20T21:16:00.241Z,15.07
2023-05-20T21:18:26.974Z,13.80
2023-05-20T21:20:55.156Z,14.48
2023-05-20T21:23:22.256Z,14.00
2023-05-20T21:25:49.037Z,14.00
2023-05-20T21:28:16.265Z,14.57
2023-05-20T21:30:43.104Z,14.88
2023-05-20T21:33:09.774Z,13.20
2023-05-20T21:35:36.660Z,14.43
2023-05-20T21:38:03.504Z,14.52
2023-05-20T21:40:30.007Z,14.30
2023-05-20T21:42:56.583Z,14.02
2023-05-20T21:45:23.082Z,14.35
2023-05-20T21:47:49.811Z,14.90
2023-05-20T21:50:16.603Z,14.38
2023-05-20T21:52:43.173Z,14.25
2023-05-20T21:55:10.567Z,13.68
2023-05-20T21:57:37.560Z,13.90
2023-05-20T22:00:15.693Z,14.05
2023-05-20T22:02:42.263Z,13.18
2023-05-20T22:05:09.344Z,14.23
2023-05-20T22:07:35.947Z,15.10
2023-05-20T22:10:02.638Z,14.05
2023-05-20T22:12:29.384Z,13.85
2023-05-20T22:14:56.325Z,13.73
2023-05-20T22:17:24.078Z,14.43
2023-05-20T22:19:50.754Z,13.52
2023-05-20T22:22:17.253Z,14.30
2023-05-20T22:24:43.776Z,14.20
2023-05-20T22:27:10.653Z,13.88
2023-05-20T22:29:37.189Z,14.65
2023-05-20T22:32:04.028Z,13.95
2023-05-20T22:34:30.557Z,14.63
2023-05-20T22:36:57.993Z,14.27
2023-05-20T22:39:24.446Z,13.68
2023-05-20T22:41:50.952Z,14.90
2023-05-20T22:44:17.405Z,13.95
2023-05-20T22:46:46.886Z,14.20
2023-05-20T22:49:13.494Z,13.75
2023-05-20T22:51:41.040Z,14.30
2023-05-20T22:54:08.695Z,14.40
2023-05-20T22:56:35.380Z,14.18
2023-05-20T22:59:01.918Z,13.90
2023-05-20T23:01:28.522Z,14.43
2023-05-20T23:03:55.317Z,13.73
2023-05-20T23:06:22.348Z,14.10
2023-05-20T23:08:49.034Z,14.13
2023-05-20T23:11:15.644Z,13.50
2023-05-20T23:13:42.191Z,14.30
2023-05-20T23:16:09.151Z,14.00
2023-05-20T23:18:36.227Z,14.60
2023-05-20T23:21:02.784Z,14.15
2023-05-20T23:23:31.719Z,14.15
2023-05-20T23:25:59.441Z,14.20
2023-05-20T23:28:26.210Z,14.18
2023-05-20T23:30:52.770Z,14.13
2023-05-20T23:33:24.433Z,14.43
2023-05-20T23:35:52.221Z,14.30
2023-05-20T23:38:19.045Z,15.25
2023-05-20T23:40:45.472Z,14.13
2023-05-20T23:43:11.928Z,13.75
2023-05-20T23:45:38.641Z,14.10
2023-05-20T23:48:05.630Z,14.10
2023-05-20T23:50:32.611Z,14.55
2023-05-20T23:52:59.145Z,13.90
2023-05-20T23:55:25.881Z,13.82
2023-05-20T23:57:52.332Z,14.65
